createdAt,value
2019-05-25T00:00:33.875Z,977.6
2019-05-25T00:01:35.616Z,977.6
2019-05-25T00:02:36.926Z,977.7
2019-05-25T00:03:38.245Z,977.7
2019-05-25T00:04:39.581Z,977.6
2019-05-25T00:05:40.992Z,977.7
2019-05-25T00:06:42.287Z,977.6
2019-05-25T00:07:44.631Z,977.6
2019-05-25T00:08:45.909Z,977.6
2019-05-25T00:09:53.321Z,977.6
2019-05-25T00:10:54.596Z,977.7
2019-05-25T00:11:56.009Z,977.7
2019-05-25T00:12:57.669Z,977.7
2019-05-25T00:13:58.972Z,977.6
2019-05-25T00:15:00.284Z,977.7
2019-05-25T00:16:01.696Z,977.8
2019-05-25T00:17:03.007Z,977.7
2019-05-25T00:18:04.300Z,977.7
2019-05-25T00:19:05.656Z,977.7
2019-05-25T00:20:06.969Z,977.7
2019-05-25T00:21:08.260Z,977.6
2019-05-25T00:22:10.341Z,977.6
2019-05-25T00:23:11.671Z,977.6
2019-05-25T00:24:13.628Z,977.7
2019-05-25T00:25:14.982Z,977.7
2019-05-25T00:26:16.284Z,977.8
2019-05-25T00:27:17.591Z,977.8
2019-05-25T00:28:18.938Z,977.8
2019-05-25T00:29:20.340Z,977.7
2019-05-25T00:30:21.666Z,977.8
2019-05-25T00:31:22.958Z,977.7
2019-05-25T00:32:24.252Z,977.8
2019-05-25T00:33:25.638Z,977.7
2019-05-25T00:34:26.950Z,977.9
2019-05-25T00:35:28.391Z,977.9
2019-05-25T00:36:29.696Z,977.8
2019-05-25T00:37:31.048Z,977.7
2019-05-25T00:38:32.306Z,977.8
2019-05-25T00:40:42.948Z,977.6
2019-05-25T00:41:44.772Z,977.8
2019-05-25T00:42:46.063Z,977.9
2019-05-25T00:43:47.391Z,977.8
2019-05-25T00:44:48.700Z,977.8
2019-05-25T00:45:50.384Z,977.8
2019-05-25T00:46:51.670Z,977.8
2019-05-25T00:47:52.974Z,977.8
2019-05-25T00:48:54.260Z,977.8
2019-05-25T00:49:55.624Z,977.8
2019-05-25T00:50:56.924Z,977.8
2019-05-25T00:51:58.196Z,977.7
2019-05-25T00:52:59.478Z,977.8
2019-05-25T00:54:00.780Z,977.8
2019-05-25T00:55:02.061Z,977.9
2019-05-25T00:56:03.374Z,977.8
2019-05-25T00:57:04.682Z,977.8
2019-05-25T00:58:05.946Z,977.9
2019-05-25T00:59:11.510Z,977.8
2019-05-25T01:00:13.015Z,977.8
2019-05-25T01:01:14.948Z,977.7
2019-05-25T01:02:16.212Z,977.8
2019-05-25T01:03:17.511Z,977.5
2019-05-25T01:04:18.772Z,977.7
2019-05-25T01:05:20.059Z,977.8
2019-05-25T01:06:21.673Z,977.5
2019-05-25T01:07:22.965Z,977.8
2019-05-25T01:08:24.248Z,977.8
2019-05-25T01:09:25.636Z,977.7
2019-05-25T01:10:26.946Z,977.8
2019-05-25T01:11:28.289Z,977.8
2019-05-25T01:12:29.591Z,977.8
2019-05-25T01:13:30.882Z,977.9
2019-05-25T01:14:32.201Z,977.8
2019-05-25T01:15:33.482Z,977.8
2019-05-25T01:16:34.820Z,977.8
2019-05-25T01:17:36.107Z,977.8
2019-05-25T01:18:37.389Z,977.8
2019-05-25T01:19:38.671Z,977.8
2019-05-25T01:20:39.972Z,977.8
2019-05-25T01:21:42.356Z,977.8
2019-05-25T01:22:43.951Z,977.8
2019-05-25T01:23:45.283Z,977.7
2019-05-25T01:24:47.375Z,977.8
2019-05-25T01:25:50.862Z,977.7
2019-05-25T01:26:52.202Z,977.8
2019-05-25T01:27:53.497Z,977.8
2019-05-25T01:28:54.751Z,977.9
2019-05-25T01:29:56.107Z,977.9
2019-05-25T01:30:57.390Z,977.8
2019-05-25T01:31:58.729Z,977.8
2019-05-25T01:33:00.032Z,977.9
2019-05-25T01:34:01.347Z,977.8
2019-05-25T01:35:02.683Z,977.9
2019-05-25T01:36:03.998Z,977.8
2019-05-25T01:37:05.369Z,977.8
2019-05-25T01:38:06.670Z,977.9
2019-05-25T01:39:07.960Z,977.8
2019-05-25T01:40:09.243Z,977.8
2019-05-25T01:41:10.523Z,977.9
2019-05-25T01:42:12.070Z,977.8
2019-05-25T01:43:13.357Z,977.9
2019-05-25T01:44:16.250Z,977.9
2019-05-25T01:45:17.645Z,978
2019-05-25T01:46:18.951Z,977.8
2019-05-25T01:47:20.289Z,977.9
2019-05-25T01:48:21.924Z,977.9
2019-05-25T01:49:23.377Z,977.9
2019-05-25T01:50:24.643Z,978
2019-05-25T01:51:25.916Z,977.9
2019-05-25T01:52:27.236Z,978
2019-05-25T01:53:28.580Z,978.1
2019-05-25T01:54:29.838Z,978.1
2019-05-25T01:55:31.113Z,978.1
2019-05-25T01:56:32.391Z,978.1
2019-05-25T01:57:33.715Z,978
2019-05-25T01:58:34.977Z,978.1
2019-05-25T01:59:36.261Z,978.1
2019-05-25T02:00:37.841Z,978
2019-05-25T02:01:39.241Z,978
2019-05-25T02:02:40.661Z,978
2019-05-25T02:03:41.974Z,978.1
2019-05-25T02:04:43.275Z,978
2019-05-25T02:05:44.565Z,978
2019-05-25T02:06:45.847Z,978.1
2019-05-25T02:07:47.433Z,978.1
2019-05-25T02:08:48.698Z,978
2019-05-25T02:09:49.997Z,978.2
2019-05-25T02:10:51.333Z,978.2
2019-05-25T02:11:52.625Z,978.1
2019-05-25T02:12:53.940Z,978.2
2019-05-25T02:13:55.241Z,978.2
2019-05-25T02:14:56.723Z,978.3
2019-05-25T02:15:58.025Z,978.3
2019-05-25T02:16:59.299Z,978.2
2019-05-25T02:18:00.682Z,978.2
2019-05-25T02:19:01.973Z,978.2
2019-05-25T02:20:03.291Z,978.2
2019-05-25T02:21:04.605Z,978.3
2019-05-25T02:22:05.903Z,978.3
2019-05-25T02:23:07.239Z,978.2
2019-05-25T02:24:08.533Z,978.2
2019-05-25T02:25:18.832Z,978.1
2019-05-25T02:26:22.987Z,978.2
2019-05-25T02:27:24.308Z,978.2
2019-05-25T02:28:26.449Z,978.1
2019-05-25T02:29:27.710Z,978.1
2019-05-25T02:30:28.999Z,978.2
2019-05-25T02:31:30.275Z,978.2
2019-05-25T02:32:31.569Z,978
2019-05-25T02:33:32.925Z,978.2
2019-05-25T02:34:34.231Z,978.3
2019-05-25T02:35:35.552Z,978.3
2019-05-25T02:36:37.019Z,978.3
2019-05-25T02:37:38.323Z,978.1
2019-05-25T02:38:39.679Z,978.1
2019-05-25T02:39:40.975Z,978.2
2019-05-25T02:40:42.281Z,978.1
2019-05-25T02:41:43.647Z,978.2
2019-05-25T02:42:44.918Z,978.2
2019-05-25T02:43:46.282Z,978.2
2019-05-25T02:44:47.547Z,978.2
2019-05-25T02:45:48.872Z,978.2
2019-05-25T02:46:50.161Z,978.1
2019-05-25T02:47:51.510Z,978.2
2019-05-25T02:48:52.853Z,978.2
2019-05-25T02:49:54.193Z,978.2
2019-05-25T02:50:58.541Z,978.3
2019-05-25T02:51:59.897Z,978.2
2019-05-25T02:53:01.182Z,978.3
2019-05-25T02:54:02.499Z,978.3
2019-05-25T02:55:03.928Z,978.3
2019-05-25T02:56:05.261Z,978.3
2019-05-25T02:57:06.538Z,978.4
2019-05-25T02:58:07.807Z,978.3
2019-05-25T02:59:09.128Z,978.3
2019-05-25T03:00:10.408Z,978.2
2019-05-25T03:01:11.749Z,978.1
2019-05-25T03:02:13.349Z,978.2
2019-05-25T03:03:14.937Z,978.1
2019-05-25T03:04:16.265Z,978.1
2019-05-25T03:05:18.839Z,978.1
2019-05-25T03:06:20.369Z,978.2
2019-05-25T03:07:21.630Z,978.3
2019-05-25T03:08:23.905Z,978.1
2019-05-25T03:09:25.308Z,978.2
2019-05-25T03:10:26.629Z,978.1
2019-05-25T03:11:27.872Z,978.3
2019-05-25T03:12:29.785Z,978.3
2019-05-25T03:13:32.650Z,978.2
2019-05-25T03:14:34.039Z,978.3
2019-05-25T03:15:35.309Z,978.2
2019-05-25T03:16:36.587Z,978.3
2019-05-25T03:17:37.942Z,978.3
2019-05-25T03:18:39.391Z,978.3
2019-05-25T03:19:40.777Z,978.3
2019-05-25T03:20:42.168Z,978.3
2019-05-25T03:21:43.528Z,978.4
2019-05-25T03:22:44.973Z,978.3
2019-05-25T03:23:46.227Z,978.3
2019-05-25T03:24:47.647Z,978.3
2019-05-25T03:25:50.903Z,978.4
2019-05-25T03:26:52.169Z,978.2
2019-05-25T03:27:53.433Z,978.3
2019-05-25T03:28:54.759Z,978.4
2019-05-25T03:29:56.069Z,978.4
2019-05-25T03:30:57.351Z,978.5
2019-05-25T03:31:58.625Z,978.5
2019-05-25T03:32:59.909Z,978.5
2019-05-25T03:34:01.192Z,978.5
2019-05-25T03:35:02.563Z,978.5
2019-05-25T03:36:04.889Z,978.5
2019-05-25T03:37:06.202Z,978.6
2019-05-25T03:38:07.541Z,978.5
2019-05-25T03:39:08.823Z,978.6
2019-05-25T03:40:10.189Z,978.6
2019-05-25T03:41:11.509Z,978.7
2019-05-25T03:42:12.854Z,978.5
2019-05-25T03:43:14.117Z,978.5
2019-05-25T03:44:15.396Z,978.6
2019-05-25T03:45:16.736Z,978.5
2019-05-25T03:46:17.995Z,978.6
2019-05-25T03:47:19.281Z,978.6
2019-05-25T03:48:20.643Z,978.7
2019-05-25T03:49:21.922Z,978.6
2019-05-25T03:50:23.317Z,978.7
2019-05-25T03:51:24.583Z,978.7
2019-05-25T03:52:25.886Z,978.8
2019-05-25T03:53:27.170Z,978.7
2019-05-25T03:54:28.471Z,978.8
2019-05-25T03:55:29.790Z,978.7
2019-05-25T03:56:31.070Z,978.7
2019-05-25T03:57:32.356Z,978.7
2019-05-25T03:58:33.640Z,978.7
2019-05-25T03:59:34.926Z,978.7
2019-05-25T04:00:36.319Z,978.7
2019-05-25T04:01:37.608Z,978.8
2019-05-25T04:02:39.047Z,978.8
2019-05-25T04:03:40.352Z,978.8
2019-05-25T04:04:41.636Z,978.8
2019-05-25T04:05:43.314Z,978.8
2019-05-25T04:06:44.676Z,978.8
2019-05-25T04:07:48.586Z,978.7
2019-05-25T04:08:49.877Z,978.7
2019-05-25T04:09:51.174Z,978.9
2019-05-25T04:10:52.497Z,978.9
2019-05-25T04:11:53.808Z,978.9
2019-05-25T04:12:55.084Z,978.9
2019-05-25T04:13:56.378Z,978.8
2019-05-25T04:14:57.688Z,978.9
2019-05-25T04:15:59.004Z,978.9
2019-05-25T04:17:00.313Z,979
2019-05-25T04:18:01.889Z,978.9
2019-05-25T04:19:03.215Z,979
2019-05-25T04:20:04.578Z,978.8
2019-05-25T04:21:05.910Z,979
2019-05-25T04:22:07.256Z,979
2019-05-25T04:23:08.521Z,979.1
2019-05-25T04:24:09.816Z,979.1
2019-05-25T04:25:11.110Z,979.1
2019-05-25T04:26:23.210Z,979.2
2019-05-25T04:27:24.579Z,979.2
2019-05-25T04:28:33.434Z,979.3
2019-05-25T04:29:34.720Z,979.2
2019-05-25T04:30:36.027Z,979.3
2019-05-25T04:31:37.420Z,979.3
2019-05-25T04:32:38.761Z,979.2
2019-05-25T04:33:40.085Z,979.3
2019-05-25T04:34:41.398Z,979.2
2019-05-25T04:35:42.721Z,979.3
2019-05-25T04:36:44.315Z,979.2
2019-05-25T04:37:45.601Z,979
2019-05-25T04:38:46.954Z,979.2
2019-05-25T04:39:48.260Z,979.3
2019-05-25T04:40:49.550Z,979.4
2019-05-25T04:41:52.670Z,979.4
2019-05-25T04:42:55.308Z,979.2
2019-05-25T04:43:56.602Z,979.1
2019-05-25T04:44:57.864Z,979.3
2019-05-25T04:46:00.355Z,979.4
2019-05-25T04:47:01.653Z,979.4
2019-05-25T04:48:03.297Z,979.3
2019-05-25T04:49:04.582Z,979.3
2019-05-25T04:50:05.857Z,979.3
2019-05-25T04:51:10.278Z,979.3
2019-05-25T04:52:11.656Z,979.1
2019-05-25T04:53:12.948Z,979.1
2019-05-25T04:54:14.220Z,979.2
2019-05-25T04:55:15.543Z,979.2
2019-05-25T04:56:16.823Z,979.2
2019-05-25T04:57:18.198Z,979.2
2019-05-25T04:58:19.529Z,979.2
2019-05-25T04:59:20.834Z,979.2
2019-05-25T05:00:22.144Z,979.3
2019-05-25T05:01:23.474Z,979.2
2019-05-25T05:02:24.802Z,979.3
2019-05-25T05:03:26.106Z,979.3
2019-05-25T05:04:27.411Z,979.3
2019-05-25T05:05:28.684Z,979.3
2019-05-25T05:06:30.027Z,979.3
2019-05-25T05:07:31.365Z,979.4
2019-05-25T05:08:36.338Z,979.3
2019-05-25T05:09:37.643Z,979.3
2019-05-25T05:10:38.952Z,979.3
2019-05-25T05:11:40.234Z,979.3
2019-05-25T05:12:41.565Z,979.3
2019-05-25T05:13:42.862Z,979.2
2019-05-25T05:14:44.156Z,979.1
2019-05-25T05:15:45.460Z,979.2
2019-05-25T05:16:46.778Z,979.2
2019-05-25T05:17:48.096Z,979
2019-05-25T05:18:52.249Z,979
2019-05-25T05:19:53.510Z,979.3
2019-05-25T05:20:54.832Z,979.3
2019-05-25T05:21:56.474Z,979.2
2019-05-25T05:22:59.290Z,979.1
2019-05-25T05:24:00.970Z,979.4
2019-05-25T05:25:02.525Z,979.3
2019-05-25T05:26:03.844Z,979.2
2019-05-25T05:27:05.117Z,979.4
2019-05-25T05:28:06.494Z,979.5
2019-05-25T05:29:07.768Z,979.5
2019-05-25T05:30:09.278Z,979.5
2019-05-25T05:31:26.433Z,979.4
2019-05-25T05:32:28.791Z,979.5
2019-05-25T05:33:30.200Z,979.5
2019-05-25T05:34:31.635Z,979.2
2019-05-25T05:35:33.100Z,979.2
2019-05-25T05:36:34.390Z,979.4
2019-05-25T05:37:35.688Z,979.3
2019-05-25T05:38:37.088Z,979.4
2019-05-25T05:39:38.389Z,979.4
2019-05-25T05:40:39.789Z,979.5
2019-05-25T05:41:41.100Z,979.5
2019-05-25T05:42:42.408Z,979.5
2019-05-25T05:43:43.789Z,979.3
2019-05-25T05:44:45.137Z,979.4
2019-05-25T05:45:46.456Z,979.4
2019-05-25T05:46:47.740Z,979.4
2019-05-25T05:47:49.047Z,979.2
2019-05-25T05:48:50.375Z,979.3
2019-05-25T05:49:51.659Z,979.4
2019-05-25T05:50:55.691Z,979.6
2019-05-25T05:51:56.978Z,979.5
2019-05-25T05:52:58.292Z,979.3
2019-05-25T05:53:59.646Z,979.4
2019-05-25T05:55:00.951Z,979.4
2019-05-25T05:56:04.449Z,979.6
2019-05-25T05:57:13.411Z,979.6
2019-05-25T05:58:14.740Z,979.7
2019-05-25T05:59:16.102Z,979.7
2019-05-25T06:00:17.619Z,979.6
2019-05-25T06:01:21.206Z,979.6
2019-05-25T06:02:22.598Z,979.7
2019-05-25T06:03:27.165Z,979.7
2019-05-25T06:04:31.465Z,979.7
2019-05-25T06:05:32.757Z,979.7
2019-05-25T06:06:38.623Z,979.7
2019-05-25T06:07:40.022Z,979.7
2019-05-25T06:08:41.339Z,979.6
2019-05-25T06:09:42.656Z,979.5
2019-05-25T06:10:43.968Z,979.7
2019-05-25T06:11:47.331Z,979.7
2019-05-25T06:12:48.625Z,979.7
2019-05-25T06:13:49.949Z,979.7
2019-05-25T06:14:51.300Z,979.7
2019-05-25T06:15:56.736Z,979.5
2019-05-25T06:16:58.039Z,979.7
2019-05-25T06:17:59.325Z,979.7
2019-05-25T06:19:00.649Z,979.6
2019-05-25T06:20:10.301Z,979.7
2019-05-25T06:21:11.610Z,979.7
2019-05-25T06:22:12.880Z,979.6
2019-05-25T06:23:14.166Z,979.6
2019-05-25T06:24:15.515Z,979.7
2019-05-25T06:25:16.891Z,979.7
2019-05-25T06:26:18.324Z,979.9
2019-05-25T06:27:28.131Z,979.7
2019-05-25T06:28:29.942Z,979.6
2019-05-25T06:29:31.251Z,979.7
2019-05-25T06:30:32.659Z,979.8
2019-05-25T06:31:34.655Z,979.9
2019-05-25T06:32:35.974Z,979.9
2019-05-25T06:33:37.291Z,979.8
2019-05-25T06:34:38.958Z,979.9
2019-05-25T06:35:40.279Z,979.9
2019-05-25T06:36:44.299Z,979.8
2019-05-25T06:37:46.027Z,979.9
2019-05-25T06:38:47.306Z,979.9
2019-05-25T06:39:48.577Z,979.9
2019-05-25T06:40:49.916Z,979.7
2019-05-25T06:41:51.301Z,979.7
2019-05-25T06:42:52.688Z,979.9
2019-05-25T06:43:54.019Z,979.8
2019-05-25T06:44:55.283Z,979.7
2019-05-25T06:45:56.606Z,979.7
2019-05-25T06:46:57.955Z,979.5
2019-05-25T06:47:59.319Z,979.9
2019-05-25T06:49:00.617Z,979.9
2019-05-25T06:50:04.717Z,979.9
2019-05-25T06:51:06.151Z,980
2019-05-25T06:52:07.436Z,980
2019-05-25T06:53:08.750Z,980
2019-05-25T06:54:10.032Z,980
2019-05-25T06:55:11.417Z,979.9
2019-05-25T06:56:12.781Z,979.9
2019-05-25T06:57:14.064Z,979.9
2019-05-25T06:58:15.389Z,980.1
2019-05-25T06:59:16.675Z,980.1
2019-05-25T07:00:17.989Z,980.1
2019-05-25T07:01:19.326Z,980.1
2019-05-25T07:02:23.569Z,980
2019-05-25T07:03:24.847Z,980.2
2019-05-25T07:04:26.159Z,980.2
2019-05-25T07:05:28.384Z,980.3
2019-05-25T07:06:31.000Z,980.3
2019-05-25T07:07:33.589Z,980.2
2019-05-25T07:08:38.870Z,980.2
2019-05-25T07:09:43.637Z,980.2
2019-05-25T07:10:46.767Z,980.3
2019-05-25T07:11:49.507Z,980.2
2019-05-25T07:12:52.413Z,980.3
2019-05-25T07:13:58.707Z,980.3
2019-05-25T07:15:03.785Z,980.4
2019-05-25T07:16:12.218Z,980.3
2019-05-25T07:17:17.847Z,980.3
2019-05-25T07:18:23.473Z,980.2
2019-05-25T07:19:30.318Z,980.3
2019-05-25T07:20:32.421Z,980.2
2019-05-25T07:21:34.895Z,980.4
2019-05-25T07:22:39.371Z,980.4
2019-05-25T07:23:41.908Z,980.4
2019-05-25T07:24:43.638Z,980.4
2019-05-25T07:25:45.310Z,980.4
2019-05-25T07:26:47.584Z,980.4
2019-05-25T07:28:01.808Z,980.4
2019-05-25T07:29:03.812Z,980.4
2019-05-25T07:30:11.455Z,980.3
2019-05-25T07:31:18.248Z,980.3
2019-05-25T07:32:21.477Z,980.4
2019-05-25T07:33:24.377Z,980.4
2019-05-25T07:34:25.713Z,980.4
2019-05-25T07:35:27.373Z,980.4
2019-05-25T07:36:28.734Z,980.4
2019-05-25T07:37:30.051Z,980.4
2019-05-25T07:38:31.394Z,980.5
2019-05-25T07:39:32.722Z,980.5
2019-05-25T07:40:37.074Z,980.5
2019-05-25T07:41:38.390Z,980.5
2019-05-25T07:42:41.168Z,980.5
2019-05-25T07:43:42.577Z,980.4
2019-05-25T07:44:43.880Z,980.5
2019-05-25T07:45:45.225Z,980.4
2019-05-25T07:46:46.666Z,980.4
2019-05-25T07:47:48.030Z,980.3
2019-05-25T07:48:51.193Z,980.4
2019-05-25T07:49:54.272Z,980.4
2019-05-25T07:50:55.562Z,980.4
2019-05-25T07:51:56.949Z,980.4
2019-05-25T07:53:04.013Z,980.4
2019-05-25T07:54:07.955Z,980.4
2019-05-25T07:55:09.237Z,980.3
2019-05-25T07:56:10.552Z,980.4
2019-05-25T07:57:11.858Z,980.4
2019-05-25T07:58:18.741Z,980.4
2019-05-25T07:59:20.292Z,980.3
2019-05-25T08:00:21.580Z,980.3
2019-05-25T08:01:22.868Z,980.3
2019-05-25T08:02:24.205Z,980.4
2019-05-25T08:03:25.586Z,980.3
2019-05-25T08:04:27.022Z,980.3
2019-05-25T08:05:28.331Z,980.4
2019-05-25T08:06:29.771Z,980.4
2019-05-25T08:07:35.355Z,980.4
2019-05-25T08:08:37.212Z,980.4
2019-05-25T08:09:39.877Z,980.4
2019-05-25T08:10:41.186Z,980.4
2019-05-25T08:11:42.873Z,980.4
2019-05-25T08:12:47.338Z,980.4
2019-05-25T08:13:48.651Z,980.4
2019-05-25T08:14:50.027Z,980.4
2019-05-25T08:15:51.351Z,980.4
2019-05-25T08:16:57.982Z,980.5
2019-05-25T08:18:07.643Z,980.4
2019-05-25T08:19:08.947Z,980.4
2019-05-25T08:20:10.311Z,980.4
2019-05-25T08:21:11.640Z,980.5
2019-05-25T08:22:12.977Z,980.4
2019-05-25T08:23:14.286Z,980.5
2019-05-25T08:24:17.769Z,980.5
2019-05-25T08:25:19.148Z,980.5
2019-05-25T08:26:20.458Z,980.4
2019-05-25T08:27:24.231Z,980.5
2019-05-25T08:28:33.892Z,980.5
2019-05-25T08:29:35.406Z,980.5
2019-05-25T08:30:36.740Z,980.5
2019-05-25T08:31:38.486Z,980.5
2019-05-25T08:32:40.385Z,980.4
2019-05-25T08:33:41.727Z,980.5
2019-05-25T08:34:43.044Z,980.5
2019-05-25T08:35:47.602Z,980.5
2019-05-25T08:36:48.938Z,980.2
2019-05-25T08:37:52.820Z,980.5
2019-05-25T08:38:55.750Z,980.5
2019-05-25T08:39:58.236Z,980.5
2019-05-25T08:40:59.934Z,980.5
2019-05-25T08:42:03.942Z,980.5
2019-05-25T08:43:07.576Z,980.6
2019-05-25T08:44:11.199Z,980.5
2019-05-25T08:45:12.510Z,980.5
2019-05-25T08:46:14.264Z,980.6
2019-05-25T08:47:15.702Z,980.5
2019-05-25T08:48:17.009Z,980.5
2019-05-25T08:49:18.644Z,980.5
2019-05-25T08:50:19.987Z,980.6
2019-05-25T08:51:21.692Z,980.6
2019-05-25T08:52:23.017Z,980.6
2019-05-25T08:53:42.308Z,980.5
2019-05-25T08:54:46.354Z,980.5
2019-05-25T08:55:48.793Z,980.5
2019-05-25T08:56:52.494Z,980.6
2019-05-25T08:57:53.800Z,980.5
2019-05-25T08:58:56.533Z,980.6
2019-05-25T09:00:02.234Z,980.5
2019-05-25T09:01:03.603Z,980.5
2019-05-25T09:02:05.211Z,980.5
2019-05-25T09:03:06.758Z,980.5
2019-05-25T09:04:10.275Z,980.5
2019-05-25T09:05:11.642Z,980.6
2019-05-25T09:06:12.920Z,980.5
2019-05-25T09:07:14.308Z,980.5
2019-05-25T09:08:15.654Z,980.5
2019-05-25T09:09:19.204Z,980.6
2019-05-25T09:10:20.528Z,980.6
2019-05-25T09:11:21.850Z,980.6
2019-05-25T09:12:23.482Z,980.6
2019-05-25T09:13:32.040Z,980.6
2019-05-25T09:14:36.407Z,980.6
2019-05-25T09:15:38.053Z,980.6
2019-05-25T09:16:39.424Z,980.6
2019-05-25T09:17:40.845Z,980.6
2019-05-25T09:18:42.296Z,980.6
2019-05-25T09:19:43.888Z,980.6
2019-05-25T09:20:51.116Z,980.6
2019-05-25T09:22:03.922Z,980.7
2019-05-25T09:23:05.676Z,980.6
2019-05-25T09:24:07.335Z,980.6
2019-05-25T09:25:08.671Z,980.6
2019-05-25T09:26:13.208Z,980.6
2019-05-25T09:27:16.297Z,980.7
2019-05-25T09:28:17.654Z,980.7
2019-05-25T09:29:18.982Z,980.6
2019-05-25T09:30:24.241Z,980.7
2019-05-25T09:31:25.581Z,980.7
2019-05-25T09:32:27.350Z,980.6
2019-05-25T09:33:28.704Z,980.7
2019-05-25T09:34:30.031Z,980.6
2019-05-25T09:35:31.340Z,980.6
2019-05-25T09:36:32.662Z,980.6
2019-05-25T09:37:36.491Z,980.7
2019-05-25T09:38:38.130Z,980.7
2019-05-25T09:39:39.864Z,980.6
2019-05-25T09:40:41.224Z,980.6
2019-05-25T09:41:42.673Z,980.6
2019-05-25T09:42:44.548Z,980.6
2019-05-25T09:43:45.992Z,980.6
2019-05-25T09:44:47.318Z,980.7
2019-05-25T09:45:48.633Z,980.7
2019-05-25T09:46:50.115Z,980.7
2019-05-25T09:47:54.260Z,980.7
2019-05-25T09:48:55.737Z,980.6
2019-05-25T09:49:57.628Z,980.7
2019-05-25T09:51:01.841Z,980.7
2019-05-25T09:52:03.363Z,980.7
2019-05-25T09:53:05.248Z,980.7
2019-05-25T09:54:09.449Z,980.7
2019-05-25T09:55:11.197Z,980.7
2019-05-25T09:56:15.480Z,980.7
2019-05-25T09:57:16.771Z,980.7
2019-05-25T09:58:21.263Z,980.8
2019-05-25T09:59:22.627Z,980.8
2019-05-25T10:00:26.338Z,980.8
2019-05-25T10:01:27.675Z,980.7
2019-05-25T10:02:29.044Z,980.8
2019-05-25T10:03:33.285Z,980.7
2019-05-25T10:04:36.827Z,980.7
2019-05-25T10:05:40.733Z,980.8
2019-05-25T10:06:42.072Z,980.7
2019-05-25T10:07:43.461Z,980.7
2019-05-25T10:08:44.960Z,980.7
2019-05-25T10:09:49.299Z,980.7
2019-05-25T10:10:53.775Z,980.7
2019-05-25T10:11:57.998Z,980.7
2019-05-25T10:12:59.365Z,980.8
2019-05-25T10:14:00.683Z,980.8
2019-05-25T10:15:02.348Z,980.7
2019-05-25T10:16:03.756Z,980.7
2019-05-25T10:17:08.227Z,980.7
2019-05-25T10:18:10.556Z,980.8
2019-05-25T10:19:12.082Z,980.8
2019-05-25T10:20:13.463Z,980.8
2019-05-25T10:21:16.991Z,980.7
2019-05-25T10:22:18.493Z,980.8
2019-05-25T10:23:19.794Z,980.7
2019-05-25T10:24:21.121Z,980.7
2019-05-25T10:25:22.433Z,980.8
2019-05-25T10:26:27.310Z,980.8
2019-05-25T10:27:28.624Z,980.5
2019-05-25T10:28:32.433Z,980.8
2019-05-25T10:29:38.255Z,980.8
2019-05-25T10:30:47.187Z,980.7
2019-05-25T10:31:48.530Z,980.7
2019-05-25T10:32:55.968Z,980.7
2019-05-25T10:33:57.579Z,980.7
2019-05-25T10:34:58.880Z,980.7
2019-05-25T10:36:00.275Z,980.7
2019-05-25T10:37:01.631Z,980.7
2019-05-25T10:38:05.425Z,980.7
2019-05-25T10:39:14.301Z,980.7
2019-05-25T10:40:15.585Z,980.7
2019-05-25T10:41:16.953Z,980.8
2019-05-25T10:42:20.351Z,980.7
2019-05-25T10:43:22.200Z,980.7
2019-05-25T10:44:23.690Z,980.7
2019-05-25T10:45:25.457Z,980.7
2019-05-25T10:46:26.955Z,980.7
2019-05-25T10:47:29.063Z,980.7
2019-05-25T10:48:35.387Z,980.6
2019-05-25T10:49:37.261Z,980.7
2019-05-25T10:50:39.097Z,980.7
2019-05-25T10:51:44.908Z,980.7
2019-05-25T10:52:46.271Z,980.7
2019-05-25T10:53:47.711Z,980.6
2019-05-25T10:54:49.262Z,980.7
2019-05-25T10:55:50.614Z,980.8
2019-05-25T10:56:52.264Z,980.7
2019-05-25T10:57:54.227Z,980.7
2019-05-25T10:58:57.393Z,980.7
2019-05-25T10:59:59.046Z,980.7
2019-05-25T11:01:00.632Z,980.7
2019-05-25T11:02:02.032Z,980.7
2019-05-25T11:03:04.679Z,980.7
2019-05-25T11:04:06.303Z,980.6
2019-05-25T11:05:07.958Z,980.7
2019-05-25T11:06:13.697Z,980.7
2019-05-25T11:07:15.055Z,980.7
2019-05-25T11:08:16.612Z,980.8
2019-05-25T11:09:20.323Z,980.8
2019-05-25T11:10:23.379Z,980.8
2019-05-25T11:11:24.753Z,980.7
2019-05-25T11:12:26.924Z,980.5
2019-05-25T11:13:28.657Z,980.8
2019-05-25T11:14:30.261Z,980.8
2019-05-25T11:15:31.858Z,980.8
2019-05-25T11:16:33.207Z,980.9
2019-05-25T11:17:34.709Z,980.9
2019-05-25T11:18:37.028Z,980.8
2019-05-25T11:19:43.313Z,980.8
2019-05-25T11:20:47.305Z,980.8
2019-05-25T11:21:48.865Z,980.8
2019-05-25T11:22:50.228Z,980.8
2019-05-25T11:23:52.702Z,980.7
2019-05-25T11:24:54.059Z,980.8
2019-05-25T11:25:55.409Z,980.7
2019-05-25T11:27:00.604Z,980.8
2019-05-25T11:28:02.356Z,980.7
2019-05-25T11:29:06.749Z,980.7
2019-05-25T11:30:10.829Z,980.8
2019-05-25T11:31:14.739Z,980.8
2019-05-25T11:32:16.649Z,980.8
2019-05-25T11:33:20.369Z,980.8
2019-05-25T11:34:21.758Z,980.7
2019-05-25T11:35:42.413Z,980.8
2019-05-25T11:36:43.994Z,980.7
2019-05-25T11:37:59.750Z,980.7
2019-05-25T11:39:09.862Z,980.8
2019-05-25T11:40:11.419Z,980.8
2019-05-25T11:41:24.104Z,980.7
2019-05-25T11:42:28.063Z,980.6
2019-05-25T11:43:37.074Z,980.8
2019-05-25T11:44:38.597Z,980.7
2019-05-25T11:45:40.088Z,980.7
2019-05-25T11:46:41.584Z,980.8
2019-05-25T11:47:42.995Z,980.8
2019-05-25T11:48:44.582Z,980.7
2019-05-25T11:49:50.194Z,980.7
2019-05-25T11:50:51.613Z,980.7
2019-05-25T11:51:55.704Z,980.8
2019-05-25T11:52:57.306Z,980.8
2019-05-25T11:53:58.906Z,980.8
2019-05-25T11:55:01.789Z,980.7
2019-05-25T11:56:03.529Z,980.8
2019-05-25T11:57:07.607Z,980.8
2019-05-25T11:58:08.998Z,980.7
2019-05-25T11:59:10.389Z,980.8
2019-05-25T12:00:27.322Z,980.7
2019-05-25T12:01:31.265Z,980.7
2019-05-25T12:02:32.799Z,980.7
2019-05-25T12:03:36.908Z,980.7
2019-05-25T12:04:38.812Z,980.7
2019-05-25T12:05:40.625Z,980.7
2019-05-25T12:06:43.345Z,980.7
2019-05-25T12:07:49.543Z,980.7
2019-05-25T12:08:53.680Z,980.6
2019-05-25T12:09:55.158Z,980.7
2019-05-25T12:10:56.657Z,980.6
2019-05-25T12:11:59.159Z,980.7
2019-05-25T12:13:03.278Z,980.7
2019-05-25T12:14:11.068Z,980.7
2019-05-25T12:15:12.635Z,980.7
2019-05-25T12:16:13.971Z,980.6
2019-05-25T12:17:15.390Z,980.6
2019-05-25T12:18:16.921Z,980.6
2019-05-25T12:19:18.711Z,980.6
2019-05-25T12:20:20.165Z,980.7
2019-05-25T12:21:22.835Z,980.6
2019-05-25T12:22:28.721Z,980.6
2019-05-25T12:23:30.370Z,980.6
2019-05-25T12:24:31.753Z,980.6
2019-05-25T12:25:36.120Z,980.5
2019-05-25T12:26:37.765Z,980.6
2019-05-25T12:27:42.348Z,980.6
2019-05-25T12:28:43.686Z,980.6
2019-05-25T12:29:45.291Z,980.5
2019-05-25T12:32:04.736Z,980.5
2019-05-25T12:33:06.289Z,980.3
2019-05-25T12:34:07.636Z,980.5
2019-05-25T12:35:09.462Z,980.5
2019-05-25T12:36:11.008Z,980.4
2019-05-25T12:37:12.351Z,980.4
2019-05-25T12:38:14.641Z,980.4
2019-05-25T12:39:16.311Z,980.4
2019-05-25T12:40:17.686Z,980.4
2019-05-25T12:41:19.302Z,980.4
2019-05-25T12:42:23.285Z,980.4
2019-05-25T12:43:28.186Z,980.4
2019-05-25T12:44:29.638Z,980.4
2019-05-25T12:45:30.946Z,980.3
2019-05-25T12:46:35.412Z,980.3
2019-05-25T12:47:36.999Z,980.3
2019-05-25T12:48:38.330Z,980.3
2019-05-25T12:49:53.337Z,980.3
2019-05-25T12:50:57.202Z,980.2
2019-05-25T12:53:10.624Z,980.3
2019-05-25T12:54:34.242Z,980.3
2019-05-25T12:55:35.599Z,980.2
2019-05-25T12:56:36.945Z,980.3
2019-05-25T12:57:38.294Z,980.3
2019-05-25T12:58:50.121Z,980.3
2019-05-25T12:59:51.697Z,980.2
2019-05-25T13:00:59.707Z,980.3
2019-05-25T13:02:03.772Z,980.3
2019-05-25T13:03:05.125Z,980.2
2019-05-25T13:04:07.708Z,980.2
2019-05-25T13:05:09.320Z,980.2
2019-05-25T13:06:13.456Z,980.2
2019-05-25T13:07:15.737Z,980.2
2019-05-25T13:08:19.676Z,980.1
2019-05-25T13:09:24.598Z,980.2
2019-05-25T13:10:26.028Z,980.2
2019-05-25T13:11:27.322Z,980.2
2019-05-25T13:12:28.755Z,980.2
2019-05-25T13:13:30.134Z,980.1
2019-05-25T13:14:31.498Z,980.2
2019-05-25T13:15:33.074Z,980.1
2019-05-25T13:16:34.779Z,980.1
2019-05-25T13:17:36.116Z,980.1
2019-05-25T13:18:37.500Z,980.1
2019-05-25T13:19:39.034Z,980.2
2019-05-25T13:20:40.596Z,980.2
2019-05-25T13:21:41.890Z,980.1
2019-05-25T13:22:44.940Z,980.1
2019-05-25T13:23:56.305Z,980.1
2019-05-25T13:24:58.182Z,980
2019-05-25T13:26:01.700Z,980.1
2019-05-25T13:27:03.507Z,980.1
2019-05-25T13:28:04.965Z,980.1